sensor_id;sensor_type;location;lat;lon;timestamp;P1;durP1;ratioP1;P2;durP2;ratioP2
18100;SDS011;9177;49.156;8.142;2023-05-07T00:01:29;1.63;;;1.17;;
18100;SDS011;9177;49.156;8.142;2023-05-07T00:03:57;1.25;;;1.15;;
18100;SDS011;9177;49.156;8.142;2023-05-07T00:06:24;1.27;;;1.17;;
18100;SDS011;9177;49.156;8.142;2023-05-07T00:08:53;1.35;;;1.13;;
18100;SDS011;9177;49.156;8.142;2023-05-07T00:11:20;1.30;;;1.10;;
18100;SDS011;9177;49.156;8.142;2023-05-07T00:13:47;1.33;;;1.23;;
18100;SDS011;9177;49.156;8.142;2023-05-07T00:16:14;1.25;;;1.10;;
18100;SDS011;9177;49.156;8.142;2023-05-07T00:18:41;1.05;;;0.90;;
18100;SDS011;9177;49.156;8.142;2023-05-07T00:21:10;1.20;;;1.00;;
18100;SDS011;9177;49.156;8.142;2023-05-07T00:23:36;1.55;;;1.38;;
18100;SDS011;9177;49.156;8.142;2023-05-07T00:26:03;2.60;;;1.00;;
18100;SDS011;9177;49.156;8.142;2023-05-07T00:28:30;0.90;;;0.90;;
18100;SDS011;9177;49.156;8.142;2023-05-07T00:30:58;1.30;;;1.20;;
18100;SDS011;9177;49.156;8.142;2023-05-07T00:33:24;1.47;;;1.27;;
18100;SDS011;9177;49.156;8.142;2023-05-07T00:35:52;1.10;;;1.00;;
18100;SDS011;9177;49.156;8.142;2023-05-07T00:38:22;1.30;;;1.20;;
18100;SDS011;9177;49.156;8.142;2023-05-07T00:40:49;1.70;;;1.08;;
18100;SDS011;9177;49.156;8.142;2023-05-07T00:43:16;1.50;;;1.40;;
18100;SDS011;9177;49.156;8.142;2023-05-07T00:45:43;0.90;;;0.90;;
18100;SDS011;9177;49.156;8.142;2023-05-07T00:48:10;1.30;;;1.20;;
18100;SDS011;9177;49.156;8.142;2023-05-07T00:50:37;1.13;;;1.02;;
18100;SDS011;9177;49.156;8.142;2023-05-07T00:53:04;1.45;;;1.00;;
18100;SDS011;9177;49.156;8.142;2023-05-07T00:55:34;1.20;;;1.03;;
18100;SDS011;9177;49.156;8.142;2023-05-07T00:58:02;1.97;;;1.30;;
18100;SDS011;9177;49.156;8.142;2023-05-07T01:00:29;1.40;;;1.23;;
18100;SDS011;9177;49.156;8.142;2023-05-07T01:02:56;1.20;;;1.00;;
18100;SDS011;9177;49.156;8.142;2023-05-07T01:05:23;1.20;;;1.10;;
18100;SDS011;9177;49.156;8.142;2023-05-07T01:07:52;1.30;;;1.20;;
18100;SDS011;9177;49.156;8.142;2023-05-07T01:10:21;1.42;;;1.20;;
18100;SDS011;9177;49.156;8.142;2023-05-07T01:12:50;1.20;;;1.10;;
18100;SDS011;9177;49.156;8.142;2023-05-07T01:15:18;1.20;;;1.10;;
18100;SDS011;9177;49.156;8.142;2023-05-07T01:17:45;1.27;;;1.10;;
18100;SDS011;9177;49.156;8.142;2023-05-07T01:20:11;1.73;;;1.27;;
18100;SDS011;9177;49.156;8.142;2023-05-07T01:22:40;1.30;;;1.20;;
18100;SDS011;9177;49.156;8.142;2023-05-07T01:25:09;1.40;;;1.10;;
18100;SDS011;9177;49.156;8.142;2023-05-07T01:27:36;1.20;;;1.10;;
18100;SDS011;9177;49.156;8.142;2023-05-07T01:30:03;1.20;;;1.10;;
18100;SDS011;9177;49.156;8.142;2023-05-07T01:32:33;2.07;;;1.17;;
18100;SDS011;9177;49.156;8.142;2023-05-07T01:35:05;2.27;;;1.20;;
18100;SDS011;9177;49.156;8.142;2023-05-07T01:37:35;1.40;;;1.30;;
18100;SDS011;9177;49.156;8.142;2023-05-07T01:40:05;1.37;;;1.27;;
18100;SDS011;9177;49.156;8.142;2023-05-07T01:42:33;1.20;;;1.10;;
18100;SDS011;9177;49.156;8.142;2023-05-07T01:45:00;1.95;;;1.13;;
18100;SDS011;9177;49.156;8.142;2023-05-07T01:47:27;1.20;;;1.10;;
18100;SDS011;9177;49.156;8.142;2023-05-07T01:49:56;2.10;;;1.23;;
18100;SDS011;9177;49.156;8.142;2023-05-07T01:52:24;2.00;;;1.30;;
18100;SDS011;9177;49.156;8.142;2023-05-07T01:54:51;1.23;;;1.02;;
18100;SDS011;9177;49.156;8.142;2023-05-07T01:57:19;3.23;;;1.30;;
18100;SDS011;9177;49.156;8.142;2023-05-07T01:59:46;1.43;;;1.30;;
18100;SDS011;9177;49.156;8.142;2023-05-07T02:02:13;1.30;;;1.20;;
18100;SDS011;9177;49.156;8.142;2023-05-07T02:04:40;1.38;;;1.27;;
18100;SDS011;9177;49.156;8.142;2023-05-07T02:07:07;1.80;;;1.17;;
18100;SDS011;9177;49.156;8.142;2023-05-07T02:09:34;1.30;;;1.10;;
18100;SDS011;9177;49.156;8.142;2023-05-07T02:12:01;2.42;;;1.10;;
18100;SDS011;9177;49.156;8.142;2023-05-07T02:14:29;1.30;;;1.20;;
18100;SDS011;9177;49.156;8.142;2023-05-07T02:16:56;1.35;;;1.10;;
18100;SDS011;9177;49.156;8.142;2023-05-07T02:19:23;1.38;;;1.20;;
18100;SDS011;9177;49.156;8.142;2023-05-07T02:21:50;1.73;;;1.20;;
18100;SDS011;9177;49.156;8.142;2023-05-07T02:24:18;1.73;;;1.15;;
18100;SDS011;9177;49.156;8.142;2023-05-07T02:26:45;1.83;;;1.20;;
18100;SDS011;9177;49.156;8.142;2023-05-07T02:29:11;1.23;;;1.10;;
18100;SDS011;9177;49.156;8.142;2023-05-07T02:31:40;1.10;;;1.00;;
18100;SDS011;9177;49.156;8.142;2023-05-07T02:34:07;1.23;;;1.13;;
18100;SDS011;9177;49.156;8.142;2023-05-07T02:36:33;1.20;;;1.10;;
18100;SDS011;9177;49.156;8.142;2023-05-07T02:39:00;1.40;;;1.27;;
18100;SDS011;9177;49.156;8.142;2023-05-07T02:41:27;1.10;;;1.00;;
18100;SDS011;9177;49.156;8.142;2023-05-07T02:43:55;1.20;;;1.10;;
18100;SDS011;9177;49.156;8.142;2023-05-07T02:46:22;2.20;;;1.43;;
18100;SDS011;9177;49.156;8.142;2023-05-07T02:48:50;1.15;;;1.05;;
18100;SDS011;9177;49.156;8.142;2023-05-07T02:51:19;1.37;;;1.10;;
18100;SDS011;9177;49.156;8.142;2023-05-07T02:53:47;1.50;;;1.40;;
18100;SDS011;9177;49.156;8.142;2023-05-07T02:56:13;1.23;;;1.10;;
18100;SDS011;9177;49.156;8.142;2023-05-07T02:58:40;1.55;;;1.45;;
18100;SDS011;9177;49.156;8.142;2023-05-07T03:01:08;2.00;;;1.10;;
18100;SDS011;9177;49.156;8.142;2023-05-07T03:03:35;1.40;;;1.30;;
18100;SDS011;9177;49.156;8.142;2023-05-07T03:06:03;1.33;;;1.13;;
18100;SDS011;9177;49.156;8.142;2023-05-07T03:08:31;1.07;;;0.93;;
18100;SDS011;9177;49.156;8.142;2023-05-07T03:10:58;1.10;;;1.03;;
18100;SDS011;9177;49.156;8.142;2023-05-07T03:13:25;2.07;;;1.00;;
18100;SDS011;9177;49.156;8.142;2023-05-07T03:15:52;1.37;;;1.10;;
18100;SDS011;9177;49.156;8.142;2023-05-07T03:18:19;1.10;;;1.02;;
18100;SDS011;9177;49.156;8.142;2023-05-07T03:20:47;0.93;;;0.90;;
18100;SDS011;9177;49.156;8.142;2023-05-07T03:23:16;0.93;;;0.90;;
18100;SDS011;9177;49.156;8.142;2023-05-07T03:25:42;1.83;;;1.13;;
18100;SDS011;9177;49.156;8.142;2023-05-07T03:28:09;1.77;;;1.10;;
18100;SDS011;9177;49.156;8.142;2023-05-07T03:30:36;1.40;;;1.30;;
18100;SDS011;9177;49.156;8.142;2023-05-07T03:33:05;1.73;;;1.30;;
18100;SDS011;9177;49.156;8.142;2023-05-07T03:35:32;1.88;;;1.20;;
18100;SDS011;9177;49.156;8.142;2023-05-07T03:37:59;2.63;;;1.58;;
18100;SDS011;9177;49.156;8.142;2023-05-07T03:40:27;1.73;;;1.20;;
18100;SDS011;9177;49.156;8.142;2023-05-07T03:42:54;1.50;;;1.20;;
18100;SDS011;9177;49.156;8.142;2023-05-07T03:45:21;1.23;;;1.13;;
18100;SDS011;9177;49.156;8.142;2023-05-07T03:47:48;1.33;;;1.10;;
18100;SDS011;9177;49.156;8.142;2023-05-07T03:50:15;1.50;;;1.20;;
18100;SDS011;9177;49.156;8.142;2023-05-07T03:52:42;1.40;;;1.10;;
18100;SDS011;9177;49.156;8.142;2023-05-07T03:55:09;1.03;;;1.00;;
18100;SDS011;9177;49.156;8.142;2023-05-07T03:57:40;1.30;;;1.17;;
18100;SDS011;9177;49.156;8.142;2023-05-07T04:00:07;2.33;;;1.10;;
18100;SDS011;9177;49.156;8.142;2023-05-07T04:02:35;1.63;;;1.30;;
18100;SDS011;9177;49.156;8.142;2023-05-07T04:05:01;1.70;;;1.37;;
18100;SDS011;9177;49.156;8.142;2023-05-07T04:07:28;1.30;;;1.20;;
18100;SDS011;9177;49.156;8.142;2023-05-07T04:09:55;1.77;;;1.13;;
18100;SDS011;9177;49.156;8.142;2023-05-07T04:12:22;1.00;;;0.93;;
18100;SDS011;9177;49.156;8.142;2023-05-07T04:14:51;1.55;;;1.15;;
18100;SDS011;9177;49.156;8.142;2023-05-07T04:17:18;2.53;;;1.27;;
18100;SDS011;9177;49.156;8.142;2023-05-07T04:19:44;1.43;;;1.20;;
18100;SDS011;9177;49.156;8.142;2023-05-07T04:22:12;1.00;;;1.00;;
18100;SDS011;9177;49.156;8.142;2023-05-07T04:24:38;1.40;;;1.08;;
18100;SDS011;9177;49.156;8.142;2023-05-07T04:27:05;1.50;;;1.10;;
18100;SDS011;9177;49.156;8.142;2023-05-07T04:29:32;1.20;;;1.10;;
18100;SDS011;9177;49.156;8.142;2023-05-07T04:32:00;1.35;;;1.10;;
18100;SDS011;9177;49.156;8.142;2023-05-07T04:34:27;2.28;;;1.08;;
18100;SDS011;9177;49.156;8.142;2023-05-07T04:36:57;1.13;;;1.02;;
18100;SDS011;9177;49.156;8.142;2023-05-07T04:39:24;1.23;;;1.13;;
18100;SDS011;9177;49.156;8.142;2023-05-07T04:41:51;1.17;;;1.08;;
18100;SDS011;9177;49.156;8.142;2023-05-07T04:44:18;1.15;;;1.10;;
18100;SDS011;9177;49.156;8.142;2023-05-07T04:46:45;1.47;;;1.20;;
18100;SDS011;9177;49.156;8.142;2023-05-07T04:49:13;1.30;;;1.20;;
18100;SDS011;9177;49.156;8.142;2023-05-07T04:51:40;0.98;;;0.95;;
18100;SDS011;9177;49.156;8.142;2023-05-07T04:54:07;1.13;;;1.03;;
18100;SDS011;9177;49.156;8.142;2023-05-07T04:56:35;2.27;;;1.23;;
18100;SDS011;9177;49.156;8.142;2023-05-07T04:59:01;2.07;;;1.20;;
18100;SDS011;9177;49.156;8.142;2023-05-07T05:01:28;0.97;;;0.90;;
18100;SDS011;9177;49.156;8.142;2023-05-07T05:03:55;1.20;;;1.10;;
18100;SDS011;9177;49.156;8.142;2023-05-07T05:06:23;1.13;;;1.07;;
18100;SDS011;9177;49.156;8.142;2023-05-07T05:08:50;1.03;;;0.90;;
18100;SDS011;9177;49.156;8.142;2023-05-07T05:11:17;1.00;;;0.90;;
18100;SDS011;9177;49.156;8.142;2023-05-07T05:13:44;0.90;;;0.90;;
18100;SDS011;9177;49.156;8.142;2023-05-07T05:16:13;1.20;;;1.02;;
18100;SDS011;9177;49.156;8.142;2023-05-07T05:18:40;1.30;;;1.08;;
18100;SDS011;9177;49.156;8.142;2023-05-07T05:21:06;1.58;;;1.10;;
18100;SDS011;9177;49.156;8.142;2023-05-07T05:23:35;1.52;;;1.17;;
18100;SDS011;9177;49.156;8.142;2023-05-07T05:26:02;1.20;;;1.10;;
18100;SDS011;9177;49.156;8.142;2023-05-07T05:28:28;1.35;;;1.13;;
18100;SDS011;9177;49.156;8.142;2023-05-07T05:30:55;1.00;;;0.90;;
18100;SDS011;9177;49.156;8.142;2023-05-07T05:33:22;1.27;;;1.00;;
18100;SDS011;9177;49.156;8.142;2023-05-07T05:35:49;1.25;;;1.15;;
18100;SDS011;9177;49.156;8.142;2023-05-07T05:38:16;1.10;;;1.00;;
18100;SDS011;9177;49.156;8.142;2023-05-07T05:40:47;1.77;;;1.15;;
18100;SDS011;9177;49.156;8.142;2023-05-07T05:43:14;1.23;;;1.13;;
18100;SDS011;9177;49.156;8.142;2023-05-07T05:45:41;1.00;;;1.00;;
18100;SDS011;9177;49.156;8.142;2023-05-07T05:48:08;1.20;;;1.10;;
18100;SDS011;9177;49.156;8.142;2023-05-07T05:50:34;1.10;;;1.00;;
18100;SDS011;9177;49.156;8.142;2023-05-07T05:53:02;1.13;;;1.00;;
18100;SDS011;9177;49.156;8.142;2023-05-07T05:55:28;1.20;;;1.05;;
18100;SDS011;9177;49.156;8.142;2023-05-07T05:57:58;0.90;;;0.90;;
18100;SDS011;9177;49.156;8.142;2023-05-07T06:00:25;1.25;;;1.00;;
18100;SDS011;9177;49.156;8.142;2023-05-07T06:02:53;3.97;;;1.53;;
18100;SDS011;9177;49.156;8.142;2023-05-07T06:05:19;1.20;;;1.10;;
18100;SDS011;9177;49.156;8.142;2023-05-07T06:07:47;1.00;;;1.00;;
18100;SDS011;9177;49.156;8.142;2023-05-07T06:10:14;1.02;;;0.80;;
18100;SDS011;9177;49.156;8.142;2023-05-07T06:12:40;1.20;;;1.10;;
18100;SDS011;9177;49.156;8.142;2023-05-07T06:15:09;1.17;;;1.03;;
18100;SDS011;9177;49.156;8.142;2023-05-07T06:17:36;1.80;;;0.88;;
18100;SDS011;9177;49.156;8.142;2023-05-07T06:20:04;1.00;;;1.00;;
18100;SDS011;9177;49.156;8.142;2023-05-07T06:22:32;1.27;;;0.90;;
18100;SDS011;9177;49.156;8.142;2023-05-07T06:24:58;1.77;;;1.00;;
18100;SDS011;9177;49.156;8.142;2023-05-07T06:27:25;1.10;;;1.00;;
18100;SDS011;9177;49.156;8.142;2023-05-07T06:29:53;1.23;;;1.10;;
18100;SDS011;9177;49.156;8.142;2023-05-07T06:32:21;0.87;;;0.87;;
18100;SDS011;9177;49.156;8.142;2023-05-07T06:34:48;0.95;;;0.95;;
18100;SDS011;9177;49.156;8.142;2023-05-07T06:37:15;0.95;;;0.90;;
18100;SDS011;9177;49.156;8.142;2023-05-07T06:39:42;1.00;;;1.00;;
18100;SDS011;9177;49.156;8.142;2023-05-07T06:42:08;1.10;;;1.00;;
18100;SDS011;9177;49.156;8.142;2023-05-07T06:44:35;1.60;;;1.20;;
18100;SDS011;9177;49.156;8.142;2023-05-07T06:47:02;1.00;;;0.90;;
18100;SDS011;9177;49.156;8.142;2023-05-07T06:49:32;0.75;;;0.75;;
18100;SDS011;9177;49.156;8.142;2023-05-07T06:51:59;1.30;;;1.13;;
18100;SDS011;9177;49.156;8.142;2023-05-07T06:54:26;0.90;;;0.90;;
18100;SDS011;9177;49.156;8.142;2023-05-07T06:56:53;1.00;;;0.90;;
18100;SDS011;9177;49.156;8.142;2023-05-07T06:59:20;1.40;;;1.17;;
18100;SDS011;9177;49.156;8.142;2023-05-07T07:01:47;0.87;;;0.87;;
18100;SDS011;9177;49.156;8.142;2023-05-07T07:04:14;0.95;;;0.90;;
18100;SDS011;9177;49.156;8.142;2023-05-07T07:06:42;1.07;;;1.00;;
18100;SDS011;9177;49.156;8.142;2023-05-07T07:09:09;1.25;;;0.95;;
18100;SDS011;9177;49.156;8.142;2023-05-07T07:11:36;0.80;;;0.80;;
18100;SDS011;9177;49.156;8.142;2023-05-07T07:14:02;0.80;;;0.80;;
18100;SDS011;9177;49.156;8.142;2023-05-07T07:16:30;0.93;;;0.93;;
18100;SDS011;9177;49.156;8.142;2023-05-07T07:18:56;0.80;;;0.80;;
18100;SDS011;9177;49.156;8.142;2023-05-07T07:21:23;0.90;;;0.90;;
18100;SDS011;9177;49.156;8.142;2023-05-07T07:23:52;1.08;;;1.00;;
18100;SDS011;9177;49.156;8.142;2023-05-07T07:26:18;0.93;;;0.93;;
18100;SDS011;9177;49.156;8.142;2023-05-07T07:28:45;0.98;;;0.88;;
18100;SDS011;9177;49.156;8.142;2023-05-07T07:31:12;1.63;;;0.95;;
18100;SDS011;9177;49.156;8.142;2023-05-07T07:33:40;1.25;;;0.95;;
18100;SDS011;9177;49.156;8.142;2023-05-07T07:36:07;1.05;;;1.00;;
18100;SDS011;9177;49.156;8.142;2023-05-07T07:38:34;1.00;;;0.90;;
18100;SDS011;9177;49.156;8.142;2023-05-07T07:41:02;1.00;;;0.90;;
18100;SDS011;9177;49.156;8.142;2023-05-07T07:43:29;0.77;;;0.77;;
18100;SDS011;9177;49.156;8.142;2023-05-07T07:45:56;1.35;;;0.98;;
18100;SDS011;9177;49.156;8.142;2023-05-07T07:48:23;0.80;;;0.80;;
18100;SDS011;9177;49.156;8.142;2023-05-07T07:50:50;1.10;;;1.00;;
18100;SDS011;9177;49.156;8.142;2023-05-07T07:53:17;0.80;;;0.75;;
18100;SDS011;9177;49.156;8.142;2023-05-07T07:55:45;1.42;;;0.90;;
18100;SDS011;9177;49.156;8.142;2023-05-07T07:58:13;1.17;;;0.90;;
18100;SDS011;9177;49.156;8.142;2023-05-07T08:00:40;1.55;;;1.08;;
18100;SDS011;9177;49.156;8.142;2023-05-07T08:03:08;0.80;;;0.80;;
18100;SDS011;9177;49.156;8.142;2023-05-07T08:05:35;1.15;;;0.98;;
18100;SDS011;9177;49.156;8.142;2023-05-07T08:08:03;0.80;;;0.80;;
18100;SDS011;9177;49.156;8.142;2023-05-07T08:10:31;2.95;;;1.10;;
18100;SDS011;9177;49.156;8.142;2023-05-07T08:13:00;0.83;;;0.83;;
18100;SDS011;9177;49.156;8.142;2023-05-07T08:15:29;0.90;;;0.82;;
18100;SDS011;9177;49.156;8.142;2023-05-07T08:17:57;0.93;;;0.90;;
18100;SDS011;9177;49.156;8.142;2023-05-07T08:20:25;1.90;;;1.00;;
18100;SDS011;9177;49.156;8.142;2023-05-07T08:22:52;1.52;;;0.80;;
18100;SDS011;9177;49.156;8.142;2023-05-07T08:25:19;1.30;;;0.77;;
18100;SDS011;9177;49.156;8.142;2023-05-07T08:27:46;1.35;;;0.77;;
18100;SDS011;9177;49.156;8.142;2023-05-07T08:30:13;0.90;;;0.90;;
18100;SDS011;9177;49.156;8.142;2023-05-07T08:32:42;0.65;;;0.65;;
18100;SDS011;9177;49.156;8.142;2023-05-07T08:35:09;0.80;;;0.80;;
18100;SDS011;9177;49.156;8.142;2023-05-07T08:37:35;8.25;;;1.58;;
18100;SDS011;9177;49.156;8.142;2023-05-07T08:40:06;5.82;;;1.65;;
18100;SDS011;9177;49.156;8.142;2023-05-07T08:42:35;6.82;;;1.27;;
18100;SDS011;9177;49.156;8.142;2023-05-07T08:45:03;2.97;;;1.13;;
18100;SDS011;9177;49.156;8.142;2023-05-07T08:47:35;5.75;;;1.63;;
18100;SDS011;9177;49.156;8.142;2023-05-07T08:50:10;5.65;;;1.30;;
18100;SDS011;9177;49.156;8.142;2023-05-07T08:52:37;6.50;;;1.58;;
18100;SDS011;9177;49.156;8.142;2023-05-07T08:55:05;8.93;;;1.80;;
18100;SDS011;9177;49.156;8.142;2023-05-07T08:57:34;11.60;;;2.28;;
18100;SDS011;9177;49.156;8.142;2023-05-07T09:00:01;10.48;;;2.03;;
18100;SDS011;9177;49.156;8.142;2023-05-07T09:02:28;9.07;;;1.90;;
18100;SDS011;9177;49.156;8.142;2023-05-07T09:04:55;9.23;;;1.67;;
18100;SDS011;9177;49.156;8.142;2023-05-07T09:07:24;9.85;;;1.80;;
18100;SDS011;9177;49.156;8.142;2023-05-07T09:09:51;11.27;;;1.70;;
18100;SDS011;9177;49.156;8.142;2023-05-07T09:12:19;4.30;;;1.60;;
18100;SDS011;9177;49.156;8.142;2023-05-07T09:14:46;30.58;;;3.78;;
18100;SDS011;9177;49.156;8.142;2023-05-07T09:17:12;14.95;;;2.20;;
18100;SDS011;9177;49.156;8.142;2023-05-07T09:19:41;13.20;;;2.65;;
18100;SDS011;9177;49.156;8.142;2023-05-07T09:22:09;14.75;;;1.92;;
18100;SDS011;9177;49.156;8.142;2023-05-07T09:24:38;4.90;;;1.55;;
18100;SDS011;9177;49.156;8.142;2023-05-07T09:27:05;6.50;;;1.75;;
18100;SDS011;9177;49.156;8.142;2023-05-07T09:29:38;4.38;;;1.70;;
18100;SDS011;9177;49.156;8.142;2023-05-07T09:32:05;3.63;;;1.70;;
18100;SDS011;9177;49.156;8.142;2023-05-07T09:34:34;7.32;;;2.10;;
18100;SDS011;9177;49.156;8.142;2023-05-07T09:37:05;5.28;;;1.98;;
18100;SDS011;9177;49.156;8.142;2023-05-07T09:39:40;4.90;;;1.70;;
18100;SDS011;9177;49.156;8.142;2023-05-07T09:42:07;6.15;;;2.03;;
18100;SDS011;9177;49.156;8.142;2023-05-07T09:44:35;7.93;;;1.92;;
18100;SDS011;9177;49.156;8.142;2023-05-07T09:47:04;7.18;;;2.20;;
18100;SDS011;9177;49.156;8.142;2023-05-07T09:49:33;7.28;;;2.13;;
18100;SDS011;9177;49.156;8.142;2023-05-07T09:52:01;8.25;;;2.25;;
18100;SDS011;9177;49.156;8.142;2023-05-07T09:54:31;10.45;;;2.10;;
18100;SDS011;9177;49.156;8.142;2023-05-07T09:57:04;7.95;;;2.30;;
18100;SDS011;9177;49.156;8.142;2023-05-07T09:59:32;5.90;;;1.75;;
18100;SDS011;9177;49.156;8.142;2023-05-07T10:01:59;8.40;;;2.05;;
18100;SDS011;9177;49.156;8.142;2023-05-07T10:04:27;9.88;;;1.90;;
18100;SDS011;9177;49.156;8.142;2023-05-07T10:06:55;9.35;;;1.83;;
18100;SDS011;9177;49.156;8.142;2023-05-07T10:09:22;5.47;;;1.80;;
18100;SDS011;9177;49.156;8.142;2023-05-07T10:11:50;2.72;;;1.70;;
18100;SDS011;9177;49.156;8.142;2023-05-07T10:14:20;5.20;;;2.00;;
18100;SDS011;9177;49.156;8.142;2023-05-07T10:16:47;4.07;;;1.80;;
18100;SDS011;9177;49.156;8.142;2023-05-07T10:19:15;4.70;;;1.90;;
18100;SDS011;9177;49.156;8.142;2023-05-07T10:21:44;3.95;;;1.77;;
18100;SDS011;9177;49.156;8.142;2023-05-07T10:24:21;5.15;;;1.70;;
18100;SDS011;9177;49.156;8.142;2023-05-07T10:26:52;2.83;;;1.70;;
18100;SDS011;9177;49.156;8.142;2023-05-07T10:29:25;3.40;;;2.03;;
18100;SDS011;9177;49.156;8.142;2023-05-07T10:32:07;8.43;;;2.03;;
18100;SDS011;9177;49.156;8.142;2023-05-07T10:34:47;18.63;;;3.45;;
18100;SDS011;9177;49.156;8.142;2023-05-07T10:37:16;16.95;;;2.72;;
18100;SDS011;9177;49.156;8.142;2023-05-07T10:39:44;10.52;;;2.67;;
18100;SDS011;9177;49.156;8.142;2023-05-07T10:42:11;7.45;;;2.42;;
18100;SDS011;9177;49.156;8.142;2023-05-07T10:44:40;8.25;;;2.00;;
18100;SDS011;9177;49.156;8.142;2023-05-07T10:47:07;8.48;;;1.95;;
18100;SDS011;9177;49.156;8.142;2023-05-07T10:49:36;5.40;;;2.00;;
18100;SDS011;9177;49.156;8.142;2023-05-07T10:52:13;7.40;;;1.92;;
18100;SDS011;9177;49.156;8.142;2023-05-07T10:54:41;6.43;;;2.10;;
18100;SDS011;9177;49.156;8.142;2023-05-07T11:00:13;10.27;;;1.92;;
18100;SDS011;9177;49.156;8.142;2023-05-07T11:03:07;4.03;;;2.25;;
18100;SDS011;9177;49.156;8.142;2023-05-07T11:05:34;3.92;;;2.03;;
18100;SDS011;9177;49.156;8.142;2023-05-07T11:08:02;4.63;;;1.80;;
18100;SDS011;9177;49.156;8.142;2023-05-07T11:10:51;3.75;;;1.90;;
18100;SDS011;9177;49.156;8.142;2023-05-07T11:16:17;6.82;;;2.10;;
18100;SDS011;9177;49.156;8.142;2023-05-07T11:18:45;9.18;;;2.50;;
18100;SDS011;9177;49.156;8.142;2023-05-07T11:21:16;9.98;;;2.47;;
18100;SDS011;9177;49.156;8.142;2023-05-07T11:23:59;7.45;;;2.42;;
18100;SDS011;9177;49.156;8.142;2023-05-07T11:26:30;7.60;;;2.20;;
18100;SDS011;9177;49.156;8.142;2023-05-07T11:29:10;5.43;;;2.45;;
18100;SDS011;9177;49.156;8.142;2023-05-07T11:31:39;4.30;;;2.28;;
18100;SDS011;9177;49.156;8.142;2023-05-07T11:34:06;4.00;;;1.83;;
18100;SDS011;9177;49.156;8.142;2023-05-07T11:36:33;4.95;;;2.15;;
18100;SDS011;9177;49.156;8.142;2023-05-07T11:39:00;7.13;;;2.40;;
18100;SDS011;9177;49.156;8.142;2023-05-07T11:41:36;8.20;;;2.55;;
18100;SDS011;9177;49.156;8.142;2023-05-07T11:44:03;4.50;;;2.30;;
18100;SDS011;9177;49.156;8.142;2023-05-07T11:46:30;3.40;;;2.00;;
18100;SDS011;9177;49.156;8.142;2023-05-07T11:49:01;4.25;;;2.28;;
18100;SDS011;9177;49.156;8.142;2023-05-07T11:51:28;4.20;;;2.10;;
18100;SDS011;9177;49.156;8.142;2023-05-07T11:53:55;4.85;;;2.20;;
18100;SDS011;9177;49.156;8.142;2023-05-07T11:56:22;6.32;;;2.35;;
18100;SDS011;9177;49.156;8.142;2023-05-07T11:58:49;13.45;;;2.50;;
18100;SDS011;9177;49.156;8.142;2023-05-07T12:01:17;7.47;;;2.70;;
18100;SDS011;9177;49.156;8.142;2023-05-07T12:03:44;6.65;;;2.35;;
18100;SDS011;9177;49.156;8.142;2023-05-07T12:06:13;9.45;;;2.58;;
18100;SDS011;9177;49.156;8.142;2023-05-07T12:08:41;7.97;;;2.20;;
18100;SDS011;9177;49.156;8.142;2023-05-07T12:11:11;4.55;;;1.90;;
18100;SDS011;9177;49.156;8.142;2023-05-07T12:13:41;4.60;;;2.22;;
18100;SDS011;9177;49.156;8.142;2023-05-07T12:16:09;7.00;;;2.10;;
18100;SDS011;9177;49.156;8.142;2023-05-07T12:18:36;3.70;;;2.15;;
18100;SDS011;9177;49.156;8.142;2023-05-07T12:21:04;4.68;;;2.00;;
18100;SDS011;9177;49.156;8.142;2023-05-07T12:23:34;2.55;;;2.08;;
18100;SDS011;9177;49.156;8.142;2023-05-07T12:26:02;4.57;;;2.05;;
18100;SDS011;9177;49.156;8.142;2023-05-07T12:28:30;4.80;;;2.15;;
18100;SDS011;9177;49.156;8.142;2023-05-07T12:31:02;10.88;;;2.22;;
18100;SDS011;9177;49.156;8.142;2023-05-07T12:33:29;9.75;;;2.20;;
18100;SDS011;9177;49.156;8.142;2023-05-07T12:35:57;10.73;;;2.35;;
18100;SDS011;9177;49.156;8.142;2023-05-07T12:38:24;6.47;;;2.30;;
18100;SDS011;9177;49.156;8.142;2023-05-07T12:40:54;5.32;;;2.58;;
18100;SDS011;9177;49.156;8.142;2023-05-07T12:43:21;5.28;;;2.22;;
18100;SDS011;9177;49.156;8.142;2023-05-07T12:45:51;5.50;;;2.13;;
18100;SDS011;9177;49.156;8.142;2023-05-07T12:48:23;4.10;;;1.90;;
18100;SDS011;9177;49.156;8.142;2023-05-07T12:50:51;3.67;;;2.03;;
18100;SDS011;9177;49.156;8.142;2023-05-07T12:53:20;5.30;;;2.15;;
18100;SDS011;9177;49.156;8.142;2023-05-07T12:55:49;5.47;;;1.92;;
18100;SDS011;9177;49.156;8.142;2023-05-07T12:58:19;5.30;;;1.90;;
18100;SDS011;9177;49.156;8.142;2023-05-07T13:00:47;5.13;;;1.98;;
18100;SDS011;9177;49.156;8.142;2023-05-07T13:03:20;6.70;;;2.40;;
18100;SDS011;9177;49.156;8.142;2023-05-07T13:05:49;9.40;;;1.95;;
18100;SDS011;9177;49.156;8.142;2023-05-07T13:08:29;4.95;;;2.10;;
18100;SDS011;9177;49.156;8.142;2023-05-07T13:10:57;4.47;;;2.30;;
18100;SDS011;9177;49.156;8.142;2023-05-07T13:13:26;4.40;;;2.10;;
18100;SDS011;9177;49.156;8.142;2023-05-07T13:15:54;4.18;;;2.00;;
18100;SDS011;9177;49.156;8.142;2023-05-07T13:18:21;5.13;;;2.00;;
18100;SDS011;9177;49.156;8.142;2023-05-07T13:20:47;5.45;;;2.00;;
18100;SDS011;9177;49.156;8.142;2023-05-07T13:23:14;8.43;;;1.90;;
18100;SDS011;9177;49.156;8.142;2023-05-07T13:25:41;4.97;;;1.70;;
18100;SDS011;9177;49.156;8.142;2023-05-07T13:28:08;2.78;;;1.83;;
18100;SDS011;9177;49.156;8.142;2023-05-07T13:30:36;3.28;;;1.80;;
18100;SDS011;9177;49.156;8.142;2023-05-07T13:33:03;2.58;;;2.00;;
18100;SDS011;9177;49.156;8.142;2023-05-07T13:35:30;2.45;;;1.92;;
18100;SDS011;9177;49.156;8.142;2023-05-07T13:37:57;4.43;;;2.08;;
18100;SDS011;9177;49.156;8.142;2023-05-07T13:40:24;5.38;;;2.08;;
18100;SDS011;9177;49.156;8.142;2023-05-07T13:42:51;5.78;;;1.95;;
18100;SDS011;9177;49.156;8.142;2023-05-07T13:45:19;3.22;;;2.20;;
18100;SDS011;9177;49.156;8.142;2023-05-07T13:47:47;4.80;;;2.15;;
18100;SDS011;9177;49.156;8.142;2023-05-07T13:50:15;3.25;;;1.85;;
18100;SDS011;9177;49.156;8.142;2023-05-07T13:52:43;7.13;;;2.20;;
18100;SDS011;9177;49.156;8.142;2023-05-07T13:55:15;4.72;;;1.95;;
18100;SDS011;9177;49.156;8.142;2023-05-07T13:57:42;5.60;;;2.10;;
18100;SDS011;9177;49.156;8.142;2023-05-07T14:00:09;4.78;;;2.55;;
18100;SDS011;9177;49.156;8.142;2023-05-07T14:02:39;4.22;;;2.20;;
18100;SDS011;9177;49.156;8.142;2023-05-07T14:05:08;7.35;;;3.03;;
18100;SDS011;9177;49.156;8.142;2023-05-07T14:07:35;3.42;;;2.22;;
18100;SDS011;9177;49.156;8.142;2023-05-07T14:10:02;4.60;;;2.15;;
18100;SDS011;9177;49.156;8.142;2023-05-07T14:12:29;4.03;;;2.42;;
18100;SDS011;9177;49.156;8.142;2023-05-07T14:14:57;3.38;;;1.65;;
18100;SDS011;9177;49.156;8.142;2023-05-07T14:17:24;4.57;;;1.55;;
18100;SDS011;9177;49.156;8.142;2023-05-07T14:19:52;5.10;;;1.80;;
18100;SDS011;9177;49.156;8.142;2023-05-07T14:22:21;4.10;;;1.70;;
18100;SDS011;9177;49.156;8.142;2023-05-07T14:24:48;6.75;;;2.53;;
18100;SDS011;9177;49.156;8.142;2023-05-07T14:27:16;7.10;;;2.58;;
18100;SDS011;9177;49.156;8.142;2023-05-07T14:29:43;6.10;;;1.90;;
18100;SDS011;9177;49.156;8.142;2023-05-07T14:32:10;4.63;;;1.77;;
18100;SDS011;9177;49.156;8.142;2023-05-07T14:34:37;5.50;;;1.98;;
18100;SDS011;9177;49.156;8.142;2023-05-07T14:37:04;6.45;;;1.70;;
18100;SDS011;9177;49.156;8.142;2023-05-07T14:39:35;8.30;;;1.95;;
18100;SDS011;9177;49.156;8.142;2023-05-07T14:42:02;8.48;;;2.15;;
18100;SDS011;9177;49.156;8.142;2023-05-07T14:44:29;11.07;;;2.55;;
18100;SDS011;9177;49.156;8.142;2023-05-07T14:46:56;6.07;;;1.92;;
18100;SDS011;9177;49.156;8.142;2023-05-07T14:49:23;5.13;;;2.08;;
18100;SDS011;9177;49.156;8.142;2023-05-07T14:51:50;10.70;;;2.00;;
18100;SDS011;9177;49.156;8.142;2023-05-07T14:54:17;9.52;;;2.58;;
18100;SDS011;9177;49.156;8.142;2023-05-07T14:56:45;4.75;;;1.98;;
18100;SDS011;9177;49.156;8.142;2023-05-07T14:59:12;5.95;;;2.13;;
18100;SDS011;9177;49.156;8.142;2023-05-07T15:01:41;8.68;;;1.90;;
18100;SDS011;9177;49.156;8.142;2023-05-07T15:04:10;6.10;;;1.92;;
18100;SDS011;9177;49.156;8.142;2023-05-07T15:06:37;7.90;;;1.90;;
18100;SDS011;9177;49.156;8.142;2023-05-07T15:09:04;11.98;;;2.47;;
18100;SDS011;9177;49.156;8.142;2023-05-07T15:11:32;2.95;;;1.48;;